Time;durP1;ratioP1;P1;durP2;ratioP2;P2;SDS_P1;SDS_P2;PMS_P1;PMS_P2;Temp;Humidity;BMP_temperature;BMP_pressure;BME280_temperature;BME280_humidity;BME280_pressure;Samples;Min_cycle;Max_cycle;Signal;HPM_P1;HPM_P2
2022/08/27 00:00:51;;;;;;;18.48;11.60;;;24.60;97.90;;;;;;6212719;23;20321;-75
2022/08/27 00:03:17;;;;;;;14.98;11.52;;;24.60;97.90;;;;;;6213666;23;20012;-75
2022/08/27 00:05:43;;;;;;;18.02;12.02;;;24.60;97.80;;;;;;6214611;23;20059;-75
2022/08/27 00:08:13;;;;;;;20.08;11.63;;;24.60;98.00;;;;;;6213991;23;20000;-75
2022/08/27 00:10:40;;;;;;;17.88;11.73;;;24.50;98.00;;;;;;6214400;23;20011;-75
2022/08/27 00:13:06;;;;;;;14.93;11.90;;;24.50;98.00;;;;;;6213722;23;20008;-76
2022/08/27 00:15:32;;;;;;;20.08;12.30;;;24.50;97.90;;;;;;6214013;23;20328;-75
2022/08/27 00:17:58;;;;;;;13.77;11.38;;;24.60;97.90;;;;;;6211989;23;20028;-75
2022/08/27 00:20:25;;;;;;;18.15;11.60;;;24.60;97.70;;;;;;6214255;23;19996;-75
2022/08/27 00:22:51;;;;;;;15.13;10.95;;;24.60;97.70;;;;;;6213663;23;20005;-76
2022/08/27 00:25:18;;;;;;;15.90;11.23;;;24.60;97.50;;;;;;6213946;23;20075;-75
2022/08/27 00:27:45;;;;;;;16.17;12.23;;;24.70;97.40;;;;;;6213794;23;20320;-76
2022/08/27 00:30:14;;;;;;;18.00;11.88;;;24.70;97.40;;;;;;6212459;23;20178;-76
2022/08/27 00:32:41;;;;;;;22.00;12.25;;;24.80;97.40;;;;;;6213036;23;20324;-75
2022/08/27 00:35:07;;;;;;;18.63;11.98;;;24.70;97.40;;;;;;6213479;23;19996;-75
2022/08/27 00:37:33;;;;;;;21.48;12.30;;;24.70;97.60;;;;;;6212200;23;20356;-75
2022/08/27 00:40:00;;;;;;;21.85;12.23;;;24.60;97.70;;;;;;6213851;23;19997;-75
2022/08/27 00:42:25;;;;;;;14.40;11.73;;;24.60;97.80;;;;;;6211954;23;20012;-75
2022/08/27 00:44:51;;;;;;;21.83;13.00;;;24.60;97.80;;;;;;6212399;23;20023;-75
2022/08/27 00:47:23;;;;;;;21.38;12.73;;;24.60;98.00;;;;;;6211951;23;20017;-76
2022/08/27 00:49:53;;;;;;;20.20;12.65;;;24.50;98.20;;;;;;6213085;23;20028;-75
2022/08/27 00:52:34;;;;;;;18.75;13.40;;;24.50;98.30;;;;;;6213376;23;20008;-76
2022/08/27 00:55:30;;;;;;;16.38;12.65;;;24.50;98.40;;;;;;6213774;23;20317;-76
2022/08/27 00:58:16;;;;;;;24.83;13.15;;;24.40;98.60;;;;;;6167019;23;20004;-75
2022/08/27 01:00:43;;;;;;;16.85;13.65;;;24.40;98.60;;;;;;6212342;23;20066;-75
2022/08/27 01:03:09;;;;;;;19.27;13.85;;;24.40;98.90;;;;;;6213158;23;20031;-75
2022/08/27 01:05:36;;;;;;;22.38;13.23;;;24.40;98.90;;;;;;6213665;23;19996;-75
2022/08/27 01:08:08;;;;;;;19.27;14.52;;;24.30;99.00;;;;;;6211076;23;20091;-75
2022/08/27 01:10:34;;;;;;;20.43;14.13;;;24.30;99.10;;;;;;6213355;23;19996;-75
2022/08/27 01:13:00;;;;;;;22.40;13.45;;;24.40;99.10;;;;;;6213225;23;20319;-75
2022/08/27 01:15:28;;;;;;;19.77;13.50;;;24.40;99.10;;;;;;6213731;23;20025;-75
2022/08/27 01:17:56;;;;;;;20.85;14.25;;;24.40;99.20;;;;;;6211234;23;20486;-76
2022/08/27 01:20:27;;;;;;;22.20;14.07;;;24.30;99.20;;;;;;6213491;23;20054;-76
2022/08/27 01:23:14;;;;;;;18.25;14.25;;;24.40;99.30;;;;;;6212917;23;20436;-76
2022/08/27 01:25:44;;;;;;;25.60;13.30;;;24.30;99.40;;;;;;6213111;23;20087;-75
2022/08/27 01:28:11;;;;;;;17.80;14.02;;;24.30;99.70;;;;;;6213016;23;20314;-75
2022/08/27 01:30:38;;;;;;;21.42;14.02;;;24.30;99.80;;;;;;6213146;23;20008;-76
2022/08/27 01:33:09;;;;;;;25.08;14.23;;;24.30;99.90;;;;;;6212884;23;20079;-76
2022/08/27 01:35:35;;;;;;;20.60;13.95;;;24.30;99.90;;;;;;6213328;23;20337;-75
2022/08/27 01:38:01;;;;;;;17.50;14.00;;;24.20;99.90;;;;;;6212977;23;20003;-76
2022/08/27 01:40:27;;;;;;;30.77;13.77;;;24.20;99.90;;;;;;6213134;23;20008;-76
2022/08/27 01:42:55;;;;;;;21.98;13.55;;;24.20;99.90;;;;;;6211102;23;20001;-76
2022/08/27 01:45:27;;;;;;;17.15;12.95;;;24.20;99.90;;;;;;6212558;23;20012;-76
2022/08/27 01:47:53;;;;;;;18.08;14.00;;;24.10;99.90;;;;;;6212267;23;20001;-76
2022/08/27 01:50:34;;;;;;;20.38;14.88;;;24.10;99.90;;;;;;6211585;23;20447;-76
2022/08/27 01:53:06;;;;;;;19.85;13.93;;;24.10;99.90;;;;;;6212912;23;20123;-76
2022/08/27 01:55:33;;;;;;;19.48;14.13;;;24.10;99.90;;;;;;6211745;23;20137;-76
2022/08/27 01:57:59;;;;;;;21.35;13.82;;;24.00;99.90;;;;;;6211249;23;20051;-76
2022/08/27 02:00:28;;;;;;;24.10;14.57;;;24.00;99.90;;;;;;6212852;23;20004;-75
2022/08/27 02:02:55;;;;;;;19.08;13.80;;;24.00;99.90;;;;;;6212639;23;20216;-76
2022/08/27 02:05:21;;;;;;;20.23;14.40;;;24.00;99.90;;;;;;6213178;23;20003;-76
2022/08/27 02:07:47;;;;;;;16.90;13.27;;;24.00;99.90;;;;;;6212202;23;20043;-75
2022/08/27 02:10:25;;;;;;;19.98;14.48;;;24.00;99.90;;;;;;6213302;23;20009;-75
2022/08/27 02:12:51;;;;;;;28.80;14.68;;;24.00;99.90;;;;;;6212995;23;20086;-75
2022/08/27 02:15:18;;;;;;;28.35;14.85;;;24.00;99.90;;;;;;6211491;23;20023;-75
2022/08/27 02:17:45;;;;;;;18.40;13.70;;;24.00;99.90;;;;;;6211851;23;20023;-75
2022/08/27 02:20:12;;;;;;;19.17;13.30;;;24.00;99.90;;;;;;6213019;23;20004;-76
2022/08/27 02:22:38;;;;;;;18.88;13.15;;;24.00;99.90;;;;;;6211848;23;20008;-76
2022/08/27 02:25:06;;;;;;;20.92;14.05;;;24.00;99.90;;;;;;6213010;23;20014;-76
2022/08/27 02:27:32;;;;;;;23.10;13.63;;;24.10;99.90;;;;;;6212177;23;20051;-76
2022/08/27 02:29:58;;;;;;;19.73;13.70;;;24.20;99.90;;;;;;6211217;23;20001;-76
2022/08/27 02:32:23;;;;;;;20.05;13.63;;;24.20;99.90;;;;;;6212469;23;20087;-75
2022/08/27 02:34:49;;;;;;;23.88;13.30;;;24.20;99.90;;;;;;6212332;23;20084;-75
2022/08/27 02:37:15;;;;;;;21.88;14.38;;;24.30;99.90;;;;;;6212372;23;20004;-75
2022/08/27 02:39:41;;;;;;;24.95;14.55;;;24.30;99.90;;;;;;6212830;23;20016;-75
2022/08/27 02:42:07;;;;;;;21.83;13.52;;;24.30;99.90;;;;;;6212705;23;20007;-76
2022/08/27 02:44:34;;;;;;;19.20;13.55;;;24.30;99.90;;;;;;6212809;23;20421;-75
2022/08/27 02:47:01;;;;;;;15.20;13.15;;;24.30;99.90;;;;;;6212487;23;20149;-75
2022/08/27 02:49:27;;;;;;;21.10;14.38;;;24.30;99.90;;;;;;6212411;23;20005;-75
2022/08/27 02:51:55;;;;;;;21.40;13.10;;;24.30;99.90;;;;;;6211711;23;19997;-75
2022/08/27 02:54:22;;;;;;;18.63;13.10;;;24.20;99.90;;;;;;6212522;23;20001;-75
2022/08/27 02:56:49;;;;;;;19.13;13.32;;;24.20;99.90;;;;;;6212941;23;20051;-75
2022/08/27 02:59:15;;;;;;;19.98;13.48;;;24.20;99.90;;;;;;6212496;23;20008;-76
2022/08/27 03:01:41;;;;;;;23.23;13.77;;;24.20;99.90;;;;;;6212795;23;19996;-75
2022/08/27 03:04:06;;;;;;;22.55;14.27;;;24.20;99.90;;;;;;6211922;23;20360;-75
2022/08/27 03:06:32;;;;;;;20.08;13.40;;;24.10;99.90;;;;;;6212710;23;20005;-76
2022/08/27 03:08:58;;;;;;;25.67;14.57;;;24.20;99.90;;;;;;6211694;23;20455;-75
2022/08/27 03:11:24;;;;;;;24.05;13.85;;;24.20;99.90;;;;;;6212729;23;20100;-76
2022/08/27 03:13:50;;;;;;;19.80;13.25;;;24.20;99.90;;;;;;6212189;23;20028;-75
2022/08/27 03:16:16;;;;;;;25.70;13.52;;;24.20;99.90;;;;;;6211406;23;20004;-76
2022/08/27 03:18:41;;;;;;;24.83;13.88;;;24.20;99.90;;;;;;6210211;23;20021;-75
2022/08/27 03:21:07;;;;;;;22.60;14.45;;;24.20;99.90;;;;;;6212621;23;20486;-75
2022/08/27 03:23:33;;;;;;;21.15;12.77;;;24.20;99.90;;;;;;6210611;23;20015;-75
2022/08/27 03:26:02;;;;;;;29.13;13.85;;;24.20;99.90;;;;;;6212344;23;20001;-75
2022/08/27 03:28:32;;;;;;;17.10;13.18;;;24.20;99.90;;;;;;6209834;23;20008;-75
2022/08/27 03:31:01;;;;;;;28.98;14.20;;;24.20;99.90;;;;;;6211026;23;20005;-75
2022/08/27 03:33:32;;;;;;;29.23;13.52;;;24.20;99.90;;;;;;6210156;23;20353;-76
2022/08/27 03:35:59;;;;;;;28.10;13.90;;;24.20;99.90;;;;;;6211139;23;20001;-75
2022/08/27 03:38:26;;;;;;;22.45;12.85;;;24.20;99.90;;;;;;6212361;23;20340;-75
2022/08/27 03:40:52;;;;;;;18.27;13.50;;;24.20;99.90;;;;;;6212785;23;19996;-74
2022/08/27 03:43:19;;;;;;;22.83;12.93;;;24.10;99.90;;;;;;6211978;23;20003;-76
2022/08/27 03:45:45;;;;;;;18.75;13.02;;;24.10;99.90;;;;;;6212134;23;20001;-75
2022/08/27 03:48:12;;;;;;;19.90;12.63;;;24.20;99.90;;;;;;6209752;23;20009;-75
2022/08/27 03:50:41;;;;;;;20.50;12.57;;;24.10;99.90;;;;;;6212615;23;20055;-76
2022/08/27 03:53:07;;;;;;;19.98;13.40;;;24.10;99.90;;;;;;6212122;23;20031;-75
2022/08/27 03:55:33;;;;;;;22.73;13.25;;;24.10;99.90;;;;;;6212498;23;20024;-75
2022/08/27 03:57:59;;;;;;;20.90;13.13;;;24.10;99.90;;;;;;6212012;23;20001;-75
2022/08/27 04:00:26;;;;;;;25.77;13.10;;;24.10;99.90;;;;;;6212564;23;20005;-75
2022/08/27 04:02:53;;;;;;;21.77;12.90;;;24.10;99.90;;;;;;6212422;23;20001;-75
2022/08/27 04:05:20;;;;;;;18.90;13.48;;;24.10;99.90;;;;;;6213563;23;20005;-76
2022/08/27 04:07:46;;;;;;;19.45;12.50;;;24.10;99.90;;;;;;6213965;23;20460;-76
2022/08/27 04:10:13;;;;;;;23.00;12.60;;;24.00;99.90;;;;;;6214167;23;20326;-75
2022/08/27 04:12:38;;;;;;;19.42;12.75;;;24.00;99.90;;;;;;6213931;23;19996;-75
2022/08/27 04:15:06;;;;;;;20.95;12.75;;;24.00;99.90;;;;;;6212574;23;20020;-76
2022/08/27 04:17:31;;;;;;;21.67;13.05;;;24.10;99.90;;;;;;6213654;23;20012;-75
2022/08/27 04:20:00;;;;;;;23.40;12.85;;;24.00;99.90;;;;;;6213921;23;20000;-75
2022/08/27 04:22:26;;;;;;;27.63;12.35;;;24.00;99.90;;;;;;6213272;23;20003;-75
2022/08/27 04:24:52;;;;;;;21.20;13.38;;;24.00;99.90;;;;;;6214104;23;20012;-75
2022/08/27 04:27:19;;;;;;;20.92;12.70;;;24.00;99.90;;;;;;6213663;23;19997;-76
2022/08/27 04:29:45;;;;;;;19.35;12.50;;;24.10;99.90;;;;;;6214000;23;20332;-76
2022/08/27 04:32:11;;;;;;;23.00;13.10;;;24.10;99.90;;;;;;6213572;23;20066;-75
2022/08/27 04:34:37;;;;;;;20.95;12.48;;;24.10;99.90;;;;;;6213728;23;20384;-75
2022/08/27 04:37:04;;;;;;;23.38;12.60;;;24.10;99.90;;;;;;6212185;23;20083;-75
2022/08/27 04:39:30;;;;;;;21.02;13.30;;;24.10;99.90;;;;;;6212952;23;20398;-75
2022/08/27 04:41:58;;;;;;;17.50;12.30;;;24.10;99.90;;;;;;6213755;23;19997;-75
2022/08/27 04:44:26;;;;;;;24.33;13.13;;;24.10;99.90;;;;;;6213924;23;20289;-75
2022/08/27 04:46:57;;;;;;;21.42;12.70;;;24.10;99.90;;;;;;6213847;23;20427;-75
2022/08/27 04:49:23;;;;;;;21.17;12.75;;;24.10;99.90;;;;;;6211534;23;20039;-76
2022/08/27 04:51:49;;;;;;;19.40;12.82;;;24.20;99.90;;;;;;6214026;23;20094;-75
2022/08/27 04:54:15;;;;;;;24.98;12.43;;;24.20;99.90;;;;;;6211533;23;20430;-76
2022/08/27 04:56:41;;;;;;;18.13;12.52;;;24.20;99.90;;;;;;6213299;23;20153;-75
2022/08/27 04:59:08;;;;;;;19.80;12.02;;;24.30;99.90;;;;;;6211714;23;20348;-76
2022/08/27 05:01:35;;;;;;;18.58;12.90;;;24.30;99.90;;;;;;6214170;23;19996;-75
2022/08/27 05:04:01;;;;;;;20.20;11.98;;;24.30;99.90;;;;;;6213001;23;20095;-75
2022/08/27 05:06:27;;;;;;;18.13;12.40;;;24.30;99.90;;;;;;6213843;23;20004;-76
2022/08/27 05:08:54;;;;;;;17.15;12.38;;;24.30;99.90;;;;;;6213362;23;20095;-75
2022/08/27 05:11:21;;;;;;;20.17;12.35;;;24.30;99.90;;;;;;6211844;23;20012;-76
2022/08/27 05:13:47;;;;;;;26.17;12.23;;;24.30;99.90;;;;;;6212396;23;20092;-76
2022/08/27 05:16:17;;;;;;;16.90;11.85;;;24.40;99.90;;;;;;6213807;23;20309;-77
2022/08/27 05:18:43;;;;;;;22.38;12.30;;;24.40;99.90;;;;;;6212864;23;20448;-77
2022/08/27 05:21:18;;;;;;;16.80;11.65;;;24.50;99.90;;;;;;6212118;23;20073;-76
2022/08/27 05:23:44;;;;;;;18.27;12.00;;;24.50;99.90;;;;;;6213043;23;20364;-76
2022/08/27 05:26:10;;;;;;;21.02;12.60;;;24.50;99.90;;;;;;6213543;23;19997;-77
2022/08/27 05:28:36;;;;;;;18.73;12.23;;;24.60;99.90;;;;;;6212892;23;20000;-76
2022/08/27 05:31:05;;;;;;;22.58;11.93;;;24.60;99.90;;;;;;6212136;23;20007;-76
2022/08/27 05:33:31;;;;;;;15.35;11.02;;;24.60;99.90;;;;;;6212586;23;20000;-76
2022/08/27 05:35:58;;;;;;;20.17;12.38;;;24.70;99.90;;;;;;6213477;23;20005;-76
2022/08/27 05:38:27;;;;;;;16.15;11.23;;;24.70;99.90;;;;;;6213131;23;20003;-76
2022/08/27 05:41:26;;;;;;;15.48;12.00;;;24.80;99.90;;;;;;6213709;23;20027;-76
2022/08/27 05:43:55;;;;;;;21.10;12.05;;;24.90;99.90;;;;;;6191293;23;20046;-76
2022/08/27 05:46:22;;;;;;;22.88;11.70;;;24.90;99.90;;;;;;6212994;23;20076;-76
2022/08/27 05:48:48;;;;;;;25.88;11.73;;;25.00;99.90;;;;;;6210919;23;20001;-76
2022/08/27 05:51:24;;;;;;;18.75;11.57;;;25.00;99.90;;;;;;6213134;23;20008;-78
2022/08/27 05:53:49;;;;;;;14.48;10.50;;;25.00;99.90;;;;;;6211248;23;20085;-80
2022/08/27 05:56:20;;;;;;;18.70;11.70;;;25.00;99.90;;;;;;6213468;23;20348;-75
2022/08/27 06:01:37;;;;;;;20.85;11.82;;;25.10;99.90;;;;;;6213342;23;20077;-76
2022/08/27 06:04:04;;;;;;;17.10;11.75;;;25.20;99.90;;;;;;6212087;23;20035;-77
2022/08/27 06:06:34;;;;;;;20.20;12.27;;;25.30;99.90;;;;;;6213352;23;20004;-76
2022/08/27 06:08:59;;;;;;;21.33;11.57;;;25.30;99.90;;;;;;6210764;23;20077;-76
2022/08/27 06:11:26;;;;;;;14.65;11.43;;;25.40;99.90;;;;;;6213188;23;20687;-76
2022/08/27 06:13:51;;;;;;;23.17;11.75;;;25.40;99.90;;;;;;6212790;23;20028;-77
2022/08/27 06:16:18;;;;;;;24.15;12.02;;;25.50;99.90;;;;;;6213284;23;20580;-77
2022/08/27 06:18:46;;;;;;;15.32;10.48;;;25.60;99.90;;;;;;6210467;23;20048;-77
2022/08/27 06:21:13;;;;;;;22.25;11.10;;;25.60;99.90;;;;;;6213024;23;20001;-76
2022/08/27 06:23:39;;;;;;;16.25;10.52;;;25.70;99.90;;;;;;6212629;23;20012;-76
2022/08/27 06:26:07;;;;;;;21.08;10.95;;;25.70;99.90;;;;;;6211462;23;20054;-76
2022/08/27 06:28:34;;;;;;;15.18;10.65;;;25.80;99.90;;;;;;6210679;23;20012;-76
2022/08/27 06:31:11;;;;;;;20.55;10.80;;;25.80;99.90;;;;;;6213347;23;20037;-77
2022/08/27 06:33:39;;;;;;;19.98;10.30;;;25.90;99.90;;;;;;6210754;23;19997;-78
2022/08/27 06:36:08;;;;;;;23.20;11.00;;;25.90;99.90;;;;;;6210940;23;20005;-77
2022/08/27 06:38:34;;;;;;;19.80;10.02;;;26.00;99.90;;;;;;6212563;23;20004;-79
2022/08/27 06:41:01;;;;;;;23.92;10.63;;;26.00;99.90;;;;;;6213129;23;20005;-77
2022/08/27 06:43:27;;;;;;;22.55;10.10;;;26.10;99.90;;;;;;6212690;23;20035;-79
2022/08/27 06:45:53;;;;;;;19.17;11.00;;;26.20;99.90;;;;;;6212769;23;20331;-83
2022/08/27 06:48:19;;;;;;;16.60;10.10;;;26.30;99.90;;;;;;6211867;23;20004;-78
2022/08/27 06:50:45;;;;;;;18.90;9.85;;;26.40;99.90;;;;;;6212911;23;20004;-79
2022/08/27 06:53:11;;;;;;;17.92;9.98;;;26.50;99.90;;;;;;6210504;23;20040;-78
2022/08/27 06:55:46;;;;;;;19.70;10.35;;;26.50;99.90;;;;;;6213293;23;20054;-78
2022/08/27 06:58:14;;;;;;;24.30;10.07;;;26.60;99.90;;;;;;6210912;23;20004;-79
2022/08/27 07:00:40;;;;;;;17.27;10.75;;;26.70;99.90;;;;;;6211350;23;20359;-82
2022/08/27 07:03:06;;;;;;;16.30;9.40;;;26.70;99.90;;;;;;6210464;23;20198;-83
2022/08/27 07:05:33;;;;;;;22.33;9.90;;;26.80;99.90;;;;;;6210789;23;20104;-75
2022/08/27 07:07:59;;;;;;;15.88;10.00;;;26.90;99.90;;;;;;6212436;23;20021;-78
2022/08/27 07:10:26;;;;;;;15.38;9.10;;;26.90;99.90;;;;;;6211330;23;20004;-78
2022/08/27 07:12:51;;;;;;;19.58;9.77;;;27.00;99.90;;;;;;6211983;23;20001;-78
2022/08/27 07:15:17;;;;;;;14.60;9.48;;;27.00;99.90;;;;;;6212910;23;20011;-78
2022/08/27 07:17:45;;;;;;;20.45;10.18;;;27.10;99.90;;;;;;6211874;23;20013;-79
2022/08/27 07:20:14;;;;;;;18.23;9.73;;;27.20;99.90;;;;;;6212788;23;20103;-78
2022/08/27 07:22:41;;;;;;;18.15;9.98;;;27.20;99.80;;;;;;6212457;23;20004;-78
2022/08/27 07:25:11;;;;;;;20.13;10.20;;;27.30;99.90;;;;;;6212128;23;20012;-78
2022/08/27 07:27:37;;;;;;;17.60;10.38;;;27.40;99.90;;;;;;6212181;23;19997;-78
2022/08/27 07:30:05;;;;;;;19.00;10.32;;;27.50;99.40;;;;;;6212715;23;20035;-79
2022/08/27 07:32:32;;;;;;;13.60;10.43;;;27.50;99.50;;;;;;6211661;23;20001;-79
2022/08/27 07:34:58;;;;;;;14.52;9.93;;;27.60;99.30;;;;;;6210929;23;20012;-79
2022/08/27 07:37:24;;;;;;;17.10;10.05;;;27.70;99.40;;;;;;6212930;23;20005;-79
2022/08/27 07:39:49;;;;;;;22.67;10.30;;;27.90;99.40;;;;;;6214636;23;20003;-78
2022/08/27 07:45:00;;;;;;;16.52;9.88;;;28.00;98.60;;;;;;6214283;23;20024;-78
2022/08/27 07:47:25;;;;;;;18.65;11.15;;;28.00;98.20;;;;;;6214135;23;20005;-84
2022/08/27 07:49:51;;;;;;;14.73;9.02;;;28.00;97.90;;;;;;6214511;23;20390;-81
2022/08/27 07:52:17;;;;;;;19.00;9.85;;;28.10;97.60;;;;;;6212264;23;20008;-80
2022/08/27 07:54:43;;;;;;;22.15;11.02;;;28.20;97.70;;;;;;6213149;23;20005;-82
2022/08/27 07:57:10;;;;;;;15.70;10.23;;;28.30;98.10;;;;;;6214117;23;20004;-82
2022/08/27 07:59:36;;;;;;;18.83;10.30;;;28.40;97.90;;;;;;6214125;23;20024;-80
2022/08/27 08:02:02;;;;;;;18.15;10.02;;;28.50;97.30;;;;;;6213736;23;20005;-80
2022/08/27 08:04:28;;;;;;;16.25;9.98;;;28.60;97.10;;;;;;6211957;23;20020;-80
2022/08/27 08:06:54;;;;;;;18.90;9.98;;;28.60;97.10;;;;;;6213990;23;20420;-79
2022/08/27 08:09:22;;;;;;;20.80;10.40;;;28.70;96.70;;;;;;6214093;23;20051;-81
2022/08/27 08:11:49;;;;;;;24.48;17.83;;;28.80;97.10;;;;;;6214533;23;19997;-79
2022/08/27 08:14:16;;;;;;;23.95;13.93;;;28.80;97.00;;;;;;6212460;23;20009;-78
2022/08/27 08:16:42;;;;;;;15.32;10.70;;;28.90;96.50;;;;;;6214060;23;20004;-82
2022/08/27 08:19:08;;;;;;;21.98;12.30;;;29.00;95.80;;;;;;6213630;23;20004;-84
2022/08/27 08:21:35;;;;;;;21.30;11.23;;;28.90;96.90;;;;;;6212738;23;20004;-78
2022/08/27 08:24:01;;;;;;;17.58;11.70;;;28.60;96.20;;;;;;6212973;23;20442;-76
2022/08/27 08:26:28;;;;;;;23.80;11.68;;;28.30;96.80;;;;;;6214304;23;20008;-76
2022/08/27 08:28:54;;;;;;;24.48;11.98;;;28.10;97.20;;;;;;6211955;23;20510;-78
2022/08/27 08:31:22;;;;;;;26.63;12.15;;;28.00;97.80;;;;;;6214045;23;20440;-76
2022/08/27 08:33:48;;;;;;;16.95;10.95;;;28.00;98.40;;;;;;6213529;23;20012;-76
2022/08/27 08:36:16;;;;;;;30.55;12.85;;;28.00;98.00;;;;;;6214040;23;20001;-74
2022/08/27 08:38:43;;;;;;;24.17;12.23;;;28.10;98.50;;;;;;6212854;23;20001;-77
2022/08/27 08:41:27;;;;;;;25.52;12.27;;;28.10;98.00;;;;;;6213626;23;20503;-76
2022/08/27 08:43:54;;;;;;;32.90;13.23;;;28.10;98.30;;;;;;6213052;23;20552;-76
2022/08/27 08:46:29;;;;;;;25.15;13.27;;;28.20;98.90;;;;;;6213980;23;20450;-74
2022/08/27 08:49:01;;;;;;;27.50;14.15;;;28.30;99.60;;;;;;6211727;23;20107;-77
2022/08/27 08:51:40;;;;;;;24.30;13.07;;;28.30;99.90;;;;;;6214126;23;20001;-77
2022/08/27 08:54:12;;;;;;;24.25;14.25;;;28.30;99.90;;;;;;6211910;23;20016;-76
2022/08/27 08:57:19;;;;;;;30.17;13.90;;;28.40;99.90;;;;;;6213387;23;20079;-77
2022/08/27 08:59:55;;;;;;;20.20;13.32;;;28.50;99.90;;;;;;6207969;23;20440;-76
2022/08/27 09:02:21;;;;;;;27.50;13.00;;;28.50;99.90;;;;;;6213375;23;20083;-83
2022/08/27 09:04:46;;;;;;;20.70;13.00;;;28.60;99.90;;;;;;6213226;23;20040;-83
2022/08/27 09:07:21;;;;;;;29.08;12.77;;;28.60;99.90;;;;;;6211620;23;20070;-76
2022/08/27 09:10:12;;;;;;;22.85;11.80;;;28.60;99.70;;;;;;6213576;23;20058;-75
2022/08/27 09:12:38;;;;;;;27.55;12.63;;;28.60;98.70;;;;;;6212263;23;20001;-77
2022/08/27 09:15:09;;;;;;;32.70;13.38;;;28.60;98.10;;;;;;6212954;23;20028;-77
2022/08/27 09:17:36;;;;;;;22.00;12.40;;;28.60;98.70;;;;;;6211052;23;20029;-78
2022/08/27 09:20:03;;;;;;;26.27;11.93;;;28.60;97.50;;;;;;6211534;23;20636;-78
2022/08/27 09:22:48;;;;;;;26.55;11.98;;;28.60;97.10;;;;;;6211548;23;20009;-77
2022/08/27 09:25:19;;;;;;;17.48;12.10;;;28.50;96.80;;;;;;6213157;23;20124;-77
2022/08/27 09:27:46;;;;;;;28.67;12.95;;;28.50;97.50;;;;;;6211629;23;20306;-75
2022/08/27 09:30:24;;;;;;;15.30;12.55;;;28.50;98.00;;;;;;6213588;23;20004;-76
2022/08/27 09:33:03;;;;;;;21.10;12.60;;;28.40;99.40;;;;;;6213069;23;20004;-75
2022/08/27 09:35:59;;;;;;;21.33;12.13;;;28.40;98.30;;;;;;6212461;23;20383;-74
2022/08/27 09:38:32;;;;;;;20.23;12.50;;;28.30;97.20;;;;;;6211307;23;19996;-75
2022/08/27 09:41:04;;;;;;;26.17;12.57;;;28.30;97.30;;;;;;6213483;23;20000;-76
2022/08/27 09:43:32;;;;;;;33.95;12.60;;;28.30;97.00;;;;;;6212983;23;20087;-76
2022/08/27 09:46:17;;;;;;;28.88;12.77;;;28.30;97.40;;;;;;6213380;23;20004;-84
2022/08/27 09:48:43;;;;;;;31.08;12.25;;;28.40;97.20;;;;;;6212885;23;20066;-79
2022/08/27 09:51:16;;;;;;;36.53;12.02;;;28.50;97.00;;;;;;6213280;23;19993;-75
2022/08/27 09:53:50;;;;;;;18.95;11.10;;;28.60;96.00;;;;;;6212361;23;20360;-77
2022/08/27 09:56:28;;;;;;;22.10;11.93;;;28.80;95.80;;;;;;6212940;23;19996;-79
2022/08/27 09:59:05;;;;;;;17.33;12.20;;;28.90;95.30;;;;;;6212921;23;20001;-80
2022/08/27 10:01:47;;;;;;;22.67;12.75;;;29.00;95.10;;;;;;6213113;23;20000;-77
2022/08/27 10:04:15;;;;;;;20.33;12.60;;;29.00;94.60;;;;;;6212452;23;20031;-75
2022/08/27 10:06:47;;;;;;;18.67;11.38;;;29.20;94.60;;;;;;6213289;23;19997;-75
2022/08/27 10:09:29;;;;;;;21.47;11.53;;;29.30;94.10;;;;;;6212483;23;20004;-79
2022/08/27 10:12:18;;;;;;;22.88;11.80;;;29.40;94.30;;;;;;6211684;23;20004;-80
2022/08/27 10:14:51;;;;;;;16.25;11.20;;;29.50;92.90;;;;;;6212684;23;19996;-82
2022/08/27 10:17:41;;;;;;;21.23;11.45;;;29.50;93.10;;;;;;6212847;23;20029;-82
2022/08/27 10:20:22;;;;;;;22.13;11.25;;;29.50;93.20;;;;;;6212994;23;20355;-80
2022/08/27 10:23:05;;;;;;;16.73;11.10;;;29.50;93.20;;;;;;6212453;23;20004;-81
2022/08/27 10:25:49;;;;;;;19.17;11.43;;;29.50;93.60;;;;;;6213167;23;20412;-80
2022/08/27 10:28:37;;;;;;;22.05;11.60;;;29.60;92.80;;;;;;6210692;23;20012;-80
2022/08/27 10:31:22;;;;;;;19.83;11.43;;;29.60;93.00;;;;;;6212331;23;20314;-82
2022/08/27 10:34:12;;;;;;;25.70;11.63;;;29.70;93.70;;;;;;6210566;23;20204;-82
2022/08/27 10:36:43;;;;;;;20.23;11.75;;;29.80;93.40;;;;;;6211515;23;20359;-79
2022/08/27 10:39:35;;;;;;;21.65;11.63;;;29.70;93.30;;;;;;6212392;23;19997;-81
2022/08/27 10:42:20;;;;;;;19.55;11.35;;;29.80;92.70;;;;;;6206467;23;20009;-81
2022/08/27 10:45:00;;;;;;;19.25;12.00;;;29.70;93.00;;;;;;6212796;23;20015;-80
2022/08/27 10:47:32;;;;;;;18.38;11.25;;;29.70;92.80;;;;;;6211208;23;20005;-82
2022/08/27 10:50:22;;;;;;;19.05;11.40;;;29.70;93.30;;;;;;6212777;23;20012;-80
2022/08/27 10:53:05;;;;;;;25.35;11.85;;;29.70;93.40;;;;;;6212079;23;20004;-82
2022/08/27 10:55:40;;;;;;;18.58;11.55;;;29.80;93.30;;;;;;6212872;23;20003;-79
2022/08/27 10:59:03;;;;;;;15.90;11.23;;;30.00;93.60;;;;;;6212187;23;20031;-80
2022/08/27 11:01:45;;;;;;;;;;;29.80;92.90;;;;;;6067975;23;20034;-81
2022/08/27 11:04:23;;;;;;;21.60;12.63;;;29.50;94.00;;;;;;6090522;23;19950;-80
2022/08/27 11:07:24;;;;;;;18.98;12.93;;;29.10;94.90;;;;;;6171904;23;20001;-80
2022/08/27 11:09:53;;;;;;;26.00;13.35;;;28.70;96.20;;;;;;6191594;23;20084;-80
2022/08/27 11:12:35;;;;;;;24.17;14.13;;;28.50;96.80;;;;;;6212742;23;20027;-79
2022/08/27 11:15:14;;;;;;;17.85;13.57;;;28.40;98.80;;;;;;6214857;23;19997;-81
2022/08/27 11:17:43;;;;;;;48.53;18.55;;;28.20;98.50;;;;;;6212155;23;20493;-79
2022/08/27 11:20:21;;;;;;;112.03;29.80;;;28.20;99.90;;;;;;6215144;23;20003;-81
2022/08/27 11:23:05;;;;;;;198.88;40.75;;;26.10;99.90;;;;;;6214595;23;20001;-78
2022/08/27 11:25:49;;;;;;;67.22;39.40;;;23.80;99.90;;;;;;6213095;23;20031;-78
2022/08/27 11:28:21;;;;;;;98.43;45.88;;;23.40;99.90;;;;;;6212527;23;19997;-79
2022/08/27 11:30:47;;;;;;;69.57;49.00;;;23.30;99.90;;;;;;6214773;23;20036;-80
2022/08/27 11:33:34;;;;;;;67.75;51.35;;;23.30;99.90;;;;;;6214165;23;20008;-84
2022/08/27 11:36:24;;;;;;;82.82;58.58;;;23.60;99.90;;;;;;6214505;23;20012;-82
2022/08/27 11:38:55;;;;;;;88.72;61.45;;;23.80;99.90;;;;;;6212933;23;20375;-82
2022/08/27 11:41:24;;;;;;;69.00;51.33;;;24.10;99.90;;;;;;6214687;23;20424;-84
2022/08/27 11:43:51;;;;;;;53.80;45.63;;;24.10;99.90;;;;;;6212369;23;20047;-83
2022/08/27 11:46:27;;;;;;;69.35;51.15;;;24.00;99.90;;;;;;6214453;23;20038;-82
2022/08/27 11:48:58;;;;;;;57.47;46.75;;;23.90;99.90;;;;;;6213819;23;20054;-82
2022/08/27 11:51:35;;;;;;;62.17;45.60;;;23.60;99.90;;;;;;6214492;23;20012;-81
2022/08/27 11:54:08;;;;;;;55.53;39.83;;;23.50;99.90;;;;;;6213965;23;20058;-83
2022/08/27 11:56:41;;;;;;;55.13;45.70;;;23.20;99.90;;;;;;6217894;23;20011;-83
2022/08/27 11:59:30;;;;;;;55.95;42.72;;;23.20;99.90;;;;;;6216528;23;20005;-78
2022/08/27 12:02:09;;;;;;;62.92;44.95;;;23.10;99.90;;;;;;6212849;23;20009;-80
2022/08/27 12:04:40;;;;;;;57.75;45.15;;;23.00;99.90;;;;;;6212246;23;20036;-80
2022/08/27 12:07:23;;;;;;;61.28;47.00;;;23.00;99.90;;;;;;6212148;23;20340;-78
2022/08/27 12:09:55;;;;;;;53.92;45.83;;;22.90;99.90;;;;;;6214552;23;20031;-78
2022/08/27 12:12:26;;;;;;;60.70;48.28;;;22.90;99.90;;;;;;6213831;23;20004;-81
2022/08/27 12:15:04;;;;;;;85.10;62.50;;;22.90;99.90;;;;;;6213556;23;20078;-80
2022/08/27 12:17:46;;;;;;;116.32;83.10;;;23.20;99.90;;;;;;6212979;23;20448;-81
2022/08/27 12:20:47;;;;;;;164.52;94.18;;;23.50;99.90;;;;;;6212375;23;20039;-82
2022/08/27 12:23:42;;;;;;;146.18;94.22;;;23.80;99.90;;;;;;6090134;23;20466;-80
2022/08/27 12:26:26;;;;;;;189.77;104.97;;;24.00;99.90;;;;;;6211788;23;20009;-79
2022/08/27 12:29:23;;;;;;;153.43;94.38;;;24.30;99.90;;;;;;6210026;23;20005;-79
2022/08/27 12:31:53;;;;;;;154.30;94.43;;;24.50;99.90;;;;;;6210932;23;20000;-79
2022/08/27 12:34:24;;;;;;;142.38;88.70;;;24.60;99.90;;;;;;6209799;23;20008;-79
2022/08/27 12:36:53;;;;;;;112.22;78.35;;;24.60;99.90;;;;;;6212757;23;20332;-79
2022/08/27 12:39:26;;;;;;;106.07;71.38;;;24.50;99.90;;;;;;6212032;23;20131;-80
2022/08/27 12:41:52;;;;;;;119.07;75.97;;;24.40;99.90;;;;;;6211779;23;20000;-81
2022/08/27 12:44:30;;;;;;;123.38;79.13;;;24.30;99.90;;;;;;6211855;23;20439;-80
2022/08/27 12:47:10;;;;;;;86.90;64.95;;;24.30;99.90;;;;;;6212737;23;20051;-79
2022/08/27 12:49:53;;;;;;;72.75;50.72;;;24.30;99.90;;;;;;6212023;23;20004;-81
2022/08/27 12:52:33;;;;;;;;;;;24.10;99.90;;;;;;6212440;23;20050;-80